createdAt,value
2022-10-11T00:01:29.718Z,78.82
2022-10-11T00:04:32.969Z,79.16
2022-10-11T00:07:38.325Z,78.98
2022-10-11T00:10:41.751Z,78.82
2022-10-11T00:13:44.534Z,78.98
2022-10-11T00:16:47.556Z,79.46
2022-10-11T00:19:50.304Z,79.08
2022-10-11T00:22:53.561Z,79.43
2022-10-11T00:26:04.961Z,79.33
2022-10-11T00:29:08.077Z,79.61
2022-10-11T00:32:11.333Z,79.67
2022-10-11T00:35:15.309Z,79.88
2022-10-11T00:38:18.668Z,80.19
2022-10-11T00:41:22.064Z,80.59
2022-10-11T00:44:28.267Z,81.26
2022-10-11T00:47:31.122Z,81.44
2022-10-11T00:50:36.720Z,81.34
2022-10-11T00:53:41.318Z,81.25
2022-10-11T00:56:54.795Z,81.38
2022-10-11T00:59:58.870Z,81.13
2022-10-11T01:03:02.775Z,81.11
2022-10-11T01:06:06.534Z,80.87
2022-10-11T01:09:11.226Z,81.06
2022-10-11T01:12:18.755Z,80.98
2022-10-11T01:15:55.279Z,80.97
2022-10-11T01:19:20.123Z,81.46
2022-10-11T01:22:41.064Z,81.61
2022-10-11T01:26:09.129Z,82.13
2022-10-11T01:29:18.286Z,82.13
2022-10-11T01:32:40.963Z,81.25
2022-10-11T01:36:27.796Z,81.16
2022-10-11T01:39:43.670Z,80.88
2022-10-11T01:42:48.293Z,80.98
2022-10-11T01:45:53.547Z,81.03
2022-10-11T01:49:01.263Z,81.17
2022-10-11T01:52:06.950Z,80.92
2022-10-11T01:55:44.296Z,80.80
2022-10-11T01:59:11.959Z,80.45
2022-10-11T02:02:32.091Z,80.40
2022-10-11T02:05:43.424Z,80.54
2022-10-11T02:08:59.211Z,80.68
2022-10-11T02:12:10.081Z,80.71
2022-10-11T02:15:14.644Z,80.68
2022-10-11T02:18:22.221Z,80.71
2022-10-11T02:21:26.159Z,80.89
2022-10-11T02:24:34.749Z,80.90
2022-10-11T02:27:40.768Z,81.64
2022-10-11T02:30:47.405Z,81.41
2022-10-11T02:34:03.001Z,81.40
2022-10-11T02:37:12.168Z,81.75
2022-10-11T02:40:20.056Z,81.90
2022-10-11T02:43:45.764Z,81.78
2022-10-11T02:46:51.932Z,82.15
2022-10-11T02:50:14.825Z,81.95
2022-10-11T02:53:35.548Z,82.12
2022-10-11T02:56:38.626Z,82.20
2022-10-11T02:59:44.049Z,82.20
2022-10-11T03:02:48.582Z,82.07
2022-10-11T03:05:51.364Z,82.02
2022-10-11T03:08:54.283Z,81.86
2022-10-11T03:11:57.404Z,81.81
2022-10-11T03:15:00.893Z,81.33
2022-10-11T03:18:04.894Z,81.17
2022-10-11T03:21:07.806Z,80.87
2022-10-11T03:24:14.960Z,80.71
2022-10-11T03:27:20.460Z,80.38
2022-10-11T03:30:23.921Z,80.51
2022-10-11T03:33:26.799Z,80.36
2022-10-11T03:36:30.585Z,80.63
2022-10-11T03:39:33.414Z,80.46
2022-10-11T03:42:37.000Z,80.70
2022-10-11T03:45:42.431Z,80.79
2022-10-11T03:48:46.170Z,80.99
2022-10-11T03:51:49.137Z,81.10
2022-10-11T03:54:52.426Z,81.23
2022-10-11T03:57:55.014Z,81.39
2022-10-11T04:01:02.260Z,81.45
2022-10-11T04:04:12.148Z,81.59
2022-10-11T04:07:16.629Z,81.60
2022-10-11T04:10:21.395Z,81.38
2022-10-11T04:13:24.952Z,81.36
2022-10-11T04:16:28.874Z,81.45
2022-10-11T04:19:32.802Z,81.66
2022-10-11T04:22:37.206Z,81.43
2022-10-11T04:25:40.134Z,81.72
2022-10-11T04:28:47.364Z,81.41
2022-10-11T04:31:50.685Z,81.29
2022-10-11T04:34:53.897Z,81.39
2022-10-11T04:37:59.214Z,81.35
2022-10-11T04:41:10.519Z,81.14
2022-10-11T04:44:13.732Z,80.94
2022-10-11T04:47:16.847Z,80.98
2022-10-11T04:50:21.740Z,80.96
2022-10-11T04:53:25.680Z,80.78
2022-10-11T04:56:32.291Z,80.76
2022-10-11T04:59:36.767Z,80.62
2022-10-11T05:02:41.378Z,80.69
2022-10-11T05:05:45.362Z,80.79
2022-10-11T05:08:48.642Z,81.04
2022-10-11T05:11:52.812Z,80.49
2022-10-11T05:15:08.711Z,80.18
2022-10-11T05:18:18.741Z,79.95
2022-10-11T05:21:28.357Z,79.93
2022-10-11T05:24:35.223Z,79.43
2022-10-11T05:27:41.368Z,79.45
2022-10-11T05:30:44.901Z,79.71
2022-10-11T05:33:51.730Z,79.19
2022-10-11T05:36:56.827Z,79.21
2022-10-11T05:40:00.240Z,79.12
2022-10-11T05:43:04.272Z,78.74
2022-10-11T05:46:09.105Z,78.58
2022-10-11T05:49:13.032Z,78.42
2022-10-11T05:52:20.495Z,78.43
2022-10-11T05:55:23.810Z,77.99
2022-10-11T05:58:27.432Z,77.27
2022-10-11T06:01:30.576Z,77.29
2022-10-11T06:04:37.255Z,77.34
2022-10-11T06:07:40.409Z,76.29
2022-10-11T06:10:45.237Z,76.24
2022-10-11T06:13:48.681Z,76.21
2022-10-11T06:16:53.013Z,76.49
2022-10-11T06:20:00.589Z,76.17
2022-10-11T06:23:07.224Z,76.37
2022-10-11T06:26:16.162Z,76.64
2022-10-11T06:29:19.719Z,76.67
2022-10-11T06:32:23.291Z,76.52
2022-10-11T06:35:28.217Z,76.57
2022-10-11T06:38:35.021Z,75.65
2022-10-11T06:41:42.099Z,74.08
2022-10-11T06:44:44.955Z,74.54
2022-10-11T06:47:50.247Z,72.28
2022-10-11T06:51:00.057Z,70.87
2022-10-11T06:54:05.421Z,69.26
2022-10-11T06:57:08.780Z,69.44
2022-10-11T07:00:14.435Z,68.02
2022-10-11T07:03:22.263Z,65.88
2022-10-11T07:06:28.062Z,65.63
2022-10-11T07:09:34.645Z,63.01
2022-10-11T07:12:38.409Z,65.91
2022-10-11T07:15:41.399Z,65.46
2022-10-11T07:18:48.713Z,67.29
2022-10-11T07:21:52.276Z,68.32
2022-10-11T07:24:55.560Z,65.87
2022-10-11T07:27:58.949Z,62.39
2022-10-11T07:31:09.377Z,60.08
2022-10-11T07:34:14.422Z,58.49
2022-10-11T07:37:17.898Z,59.11
2022-10-11T07:40:22.783Z,56.39
2022-10-11T07:43:26.369Z,58.21
2022-10-11T07:46:30.394Z,57.03
2022-10-11T07:49:33.456Z,60.21
2022-10-11T07:52:36.655Z,60.63
2022-10-11T07:55:43.059Z,58.18
2022-10-11T07:58:51.698Z,56.64
2022-10-11T08:01:59.303Z,60.42
2022-10-11T08:05:11.192Z,58.23
2022-10-11T08:08:15.047Z,56.79
2022-10-11T08:11:27.023Z,59.50
2022-10-11T08:18:34.500Z,58.05
2022-10-11T08:22:43.438Z,56.11
2022-10-11T08:25:49.536Z,55.29
2022-10-11T08:28:54.817Z,56.55
2022-10-11T08:32:01.538Z,58.50
2022-10-11T08:35:06.405Z,57.33
2022-10-11T08:38:10.498Z,55.39
2022-10-11T08:41:20.902Z,54.54
2022-10-11T08:45:09.915Z,54.70
2022-10-11T08:48:24.275Z,53.38
2022-10-11T08:51:34.451Z,53.92
2022-10-11T08:54:51.157Z,54.64
2022-10-11T08:57:56.024Z,54.39
2022-10-11T09:01:00.805Z,53.55
2022-10-11T09:04:06.421Z,52.21
2022-10-11T09:07:31.463Z,54.79
2022-10-11T09:10:44.550Z,57.04
2022-10-11T09:14:13.263Z,55.56
2022-10-11T09:17:39.751Z,56.32
2022-10-11T09:20:53.268Z,56.72
2022-10-11T09:24:21.325Z,56.92
2022-10-11T09:28:01.683Z,56.97
2022-10-11T09:31:11.072Z,58.47
2022-10-11T09:34:15.737Z,56.09
2022-10-11T09:37:33.062Z,55.87
2022-10-11T09:41:06.093Z,56.71
2022-10-11T09:44:48.216Z,55.09
2022-10-11T09:47:59.245Z,53.36
2022-10-11T09:51:12.397Z,53.38
2022-10-11T09:54:18.407Z,53.61
2022-10-11T09:57:31.187Z,54.16
2022-10-11T10:00:35.107Z,52.28
2022-10-11T10:03:44.566Z,54.46
2022-10-11T10:06:48.449Z,54.52
2022-10-11T10:09:54.328Z,54.44
2022-10-11T10:13:06.404Z,53.15
2022-10-11T10:16:28.505Z,52.81
2022-10-11T10:19:48.600Z,54.33
2022-10-11T10:22:59.171Z,53.88
2022-10-11T10:26:16.271Z,55.00
2022-10-11T10:29:20.311Z,53.53
2022-10-11T10:32:30.988Z,53.80
2022-10-11T10:35:47.593Z,53.99
2022-10-11T10:39:21.180Z,54.69
2022-10-11T10:42:25.644Z,54.91
2022-10-11T10:45:39.383Z,54.77
2022-10-11T10:52:39.008Z,54.57
2022-10-11T10:55:46.045Z,55.90
2022-10-11T10:59:19.171Z,55.54
2022-10-11T11:02:41.522Z,55.64
2022-10-11T11:06:07.823Z,53.97
2022-10-11T11:09:37.341Z,53.25
2022-10-11T11:13:05.131Z,54.09
2022-10-11T11:16:30.953Z,51.74
2022-10-11T11:19:59.662Z,54.08
2022-10-11T11:23:23.810Z,52.62
2022-10-11T11:26:49.434Z,53.79
2022-10-11T11:30:32.221Z,53.68
2022-10-11T11:33:59.485Z,55.42
2022-10-11T11:37:09.953Z,54.74
2022-10-11T11:40:12.684Z,55.86
2022-10-11T11:43:23.221Z,55.44
2022-10-11T11:46:36.175Z,56.08
2022-10-11T11:50:04.536Z,56.08
2022-10-11T11:53:26.233Z,54.96
2022-10-11T11:56:45.392Z,55.39
2022-10-11T12:00:04.112Z,55.98
2022-10-11T12:03:24.164Z,55.44
2022-10-11T12:06:47.878Z,56.04
2022-10-11T12:10:36.576Z,56.07
2022-10-11T12:13:41.002Z,56.08
2022-10-11T12:17:21.913Z,56.64
2022-10-11T12:20:39.211Z,56.26
2022-10-11T12:23:57.330Z,56.25
2022-10-11T12:27:38.608Z,56.58
2022-10-11T12:30:49.224Z,56.58
2022-10-11T12:34:16.496Z,56.12
2022-10-11T12:37:25.135Z,55.73
2022-10-11T12:40:42.223Z,57.50
2022-10-11T12:43:50.331Z,56.50
2022-10-11T12:46:53.860Z,57.38
2022-10-11T12:50:23.375Z,57.35
2022-10-11T12:54:14.404Z,57.32
2022-10-11T12:57:45.957Z,57.41
2022-10-11T13:00:56.561Z,56.99
2022-10-11T13:04:12.646Z,57.33
2022-10-11T13:07:24.478Z,56.54
2022-10-11T13:10:44.914Z,57.59
2022-10-11T13:14:30.198Z,57.03
2022-10-11T13:17:39.179Z,56.82
2022-10-11T13:20:45.134Z,57.50
2022-10-11T13:23:51.355Z,57.66
2022-10-11T13:26:58.364Z,58.04
2022-10-11T13:30:12.261Z,58.06
2022-10-11T13:33:24.296Z,58.04
2022-10-11T13:36:33.805Z,58.24
2022-10-11T13:39:39.247Z,58.10
2022-10-11T13:42:51.084Z,57.80
2022-10-11T13:45:58.535Z,58.25
2022-10-11T13:49:07.255Z,58.19
2022-10-11T13:52:22.273Z,58.17
2022-10-11T13:55:39.315Z,58.22
2022-10-11T13:58:48.708Z,59.07
2022-10-11T14:01:59.003Z,58.01
2022-10-11T14:05:05.505Z,58.13
2022-10-11T14:08:49.174Z,58.28
2022-10-11T14:11:57.237Z,58.60
2022-10-11T14:15:34.447Z,58.20
2022-10-11T14:18:38.134Z,58.14
2022-10-11T14:21:46.558Z,58.15
2022-10-11T14:25:04.214Z,57.68
2022-10-11T14:28:14.362Z,58.82
2022-10-11T14:31:25.297Z,58.39
2022-10-11T14:34:32.095Z,57.77
2022-10-11T14:37:36.585Z,58.09
2022-10-11T14:40:52.169Z,58.55
2022-10-11T14:43:57.297Z,59.12
2022-10-11T14:47:06.520Z,59.63
2022-10-11T14:50:23.441Z,60.08
2022-10-11T14:53:27.115Z,60.70
2022-10-11T14:56:35.003Z,60.61
2022-10-11T14:59:39.837Z,60.63
2022-10-11T15:02:45.590Z,60.86
2022-10-11T15:05:53.524Z,61.47
2022-10-11T15:08:58.736Z,61.66
2022-10-11T15:12:01.769Z,61.59
2022-10-11T15:15:04.919Z,61.71
2022-10-11T15:18:17.205Z,62.73
2022-10-11T15:21:25.443Z,62.77
2022-10-11T15:24:41.328Z,62.08
2022-10-11T15:27:46.000Z,63.34
2022-10-11T15:30:58.066Z,63.83
2022-10-11T15:34:08.561Z,65.61
2022-10-11T15:37:13.212Z,66.81
2022-10-11T15:40:28.389Z,66.97
2022-10-11T15:43:39.299Z,68.03
2022-10-11T15:46:52.284Z,68.23
2022-10-11T15:49:56.250Z,68.58
2022-10-11T15:53:33.524Z,69.23
2022-10-11T15:56:38.388Z,70.13
2022-10-11T15:59:48.517Z,71.08
2022-10-11T16:02:59.289Z,71.00
2022-10-11T16:06:14.291Z,71.85
2022-10-11T16:09:17.615Z,72.26
2022-10-11T16:12:26.287Z,72.46
2022-10-11T16:15:34.196Z,72.38
2022-10-11T16:18:38.495Z,72.62
2022-10-11T16:21:42.796Z,72.47
2022-10-11T16:24:55.314Z,72.96
2022-10-11T16:28:06.464Z,72.64
2022-10-11T16:31:18.360Z,72.89
2022-10-11T16:34:24.757Z,73.64
2022-10-11T16:37:36.417Z,74.12
2022-10-11T16:40:50.302Z,75.12
2022-10-11T16:44:02.576Z,75.88
2022-10-11T16:47:20.569Z,76.17
2022-10-11T16:50:27.491Z,76.15
2022-10-11T16:53:44.217Z,76.62
2022-10-11T16:56:52.283Z,76.87
2022-10-11T17:00:14.282Z,76.90
2022-10-11T17:03:21.361Z,78.22
2022-10-11T17:06:27.353Z,79.05
2022-10-11T17:09:41.548Z,79.12
2022-10-11T17:12:50.175Z,78.77
2022-10-11T17:15:58.810Z,78.96
2022-10-11T17:19:03.181Z,79.31
2022-10-11T17:22:08.260Z,79.15
2022-10-11T17:25:12.844Z,79.71
2022-10-11T17:28:19.619Z,79.62
2022-10-11T17:31:40.294Z,79.57
2022-10-11T17:34:55.329Z,79.66
2022-10-11T17:38:05.926Z,80.02
2022-10-11T17:41:17.593Z,80.27
2022-10-11T17:44:24.728Z,80.30
2022-10-11T17:47:37.333Z,80.81
2022-10-11T17:50:46.983Z,80.97
2022-10-11T17:53:54.749Z,81.67
2022-10-11T17:56:59.976Z,81.22
2022-10-11T18:00:11.510Z,82.54
2022-10-11T18:03:45.608Z,82.82
2022-10-11T18:06:56.551Z,82.97
2022-10-11T18:10:04.511Z,83.27
2022-10-11T18:13:10.969Z,83.51
2022-10-11T18:16:33.210Z,83.70
2022-10-11T18:19:45.321Z,83.79
2022-10-11T18:23:04.563Z,84.11
2022-10-11T18:26:26.711Z,84.52
2022-10-11T18:29:38.632Z,84.85
2022-10-11T18:32:41.908Z,84.85
2022-10-11T18:35:51.584Z,85.17
2022-10-11T18:39:09.231Z,85.25
2022-10-11T18:42:23.224Z,85.53
2022-10-11T18:45:32.601Z,85.24
2022-10-11T18:48:42.404Z,85.23
2022-10-11T18:51:50.367Z,85.03
2022-10-11T18:55:13.455Z,85.31
2022-10-11T18:58:31.008Z,85.56
2022-10-11T19:01:59.252Z,85.77
2022-10-11T19:05:09.262Z,85.45
2022-10-11T19:08:33.661Z,85.38
2022-10-11T19:11:42.603Z,85.70
2022-10-11T19:14:57.647Z,86.46
2022-10-11T19:18:01.886Z,86.42
2022-10-11T19:21:10.367Z,86.66
2022-10-11T19:24:30.291Z,86.89
2022-10-11T19:27:44.392Z,86.89
2022-10-11T19:30:49.239Z,87.14
2022-10-11T19:34:01.288Z,87.08
2022-10-11T19:37:09.528Z,87.22
2022-10-11T19:40:21.278Z,88.28
2022-10-11T19:43:44.764Z,88.39
2022-10-11T19:46:53.263Z,88.11
2022-10-11T19:49:56.352Z,87.79
2022-10-11T19:53:07.316Z,87.89
2022-10-11T19:56:19.438Z,88.09
2022-10-11T19:59:30.298Z,88.33
2022-10-11T20:02:37.840Z,88.97
2022-10-11T20:05:42.314Z,88.90
2022-10-11T20:09:27.537Z,88.65
2022-10-11T20:12:29.360Z,88.55
2022-10-11T20:15:37.394Z,88.80
2022-10-11T20:18:42.776Z,88.97
2022-10-11T20:21:45.595Z,89.27
2022-10-11T20:24:55.311Z,89.38
2022-10-11T20:28:00.265Z,89.31
2022-10-11T20:31:11.633Z,89.28
2022-10-11T20:34:15.382Z,89.74
2022-10-11T20:37:19.288Z,89.41
2022-10-11T20:40:22.118Z,89.06
2022-10-11T20:43:28.686Z,89.25
2022-10-11T20:46:33.916Z,89.49
2022-10-11T20:49:37.636Z,89.75
2022-10-11T20:52:54.526Z,89.81
2022-10-11T21:00:34.357Z,89.39
2022-10-11T21:03:40.180Z,89.39
2022-10-11T21:06:43.038Z,89.15
2022-10-11T21:10:08.505Z,88.79
2022-10-11T21:13:14.278Z,88.83
2022-10-11T21:16:30.877Z,88.65
2022-10-11T21:19:46.282Z,88.48
2022-10-11T21:22:49.353Z,88.40
2022-10-11T21:26:02.942Z,88.38
2022-10-11T21:29:09.237Z,89.02
2022-10-11T21:32:15.494Z,89.27
2022-10-11T21:35:20.150Z,89.50
2022-10-11T21:38:28.302Z,89.67
2022-10-11T21:41:47.831Z,89.91
2022-10-11T21:45:05.676Z,89.71
2022-10-11T21:48:22.280Z,89.94
2022-10-11T21:51:32.414Z,89.98
2022-10-11T21:54:35.478Z,90.49
2022-10-11T21:57:38.448Z,90.52
2022-10-11T22:00:41.524Z,90.59
2022-10-11T22:04:43.760Z,90.65
2022-10-11T22:07:58.443Z,90.79
2022-10-11T22:11:18.924Z,90.94
2022-10-11T22:14:29.926Z,91.31
2022-10-11T22:17:33.088Z,91.27
2022-10-11T22:20:40.729Z,90.90
2022-10-11T22:23:46.259Z,90.76
2022-10-11T22:26:54.547Z,90.58
2022-10-11T22:29:57.499Z,91.07
2022-10-11T22:33:36.408Z,90.84
2022-10-11T22:37:11.151Z,90.52
2022-10-11T22:40:57.954Z,90.26
2022-10-11T22:44:01.458Z,90.24
2022-10-11T22:47:04.492Z,89.92
2022-10-11T22:54:26.594Z,90.43
2022-10-11T22:57:36.591Z,90.70
2022-10-11T23:00:42.226Z,90.54
2022-10-11T23:03:50.706Z,90.38
2022-10-11T23:06:55.347Z,90.36
2022-10-11T23:09:59.592Z,90.46
2022-10-11T23:13:06.181Z,90.86
2022-10-11T23:16:13.441Z,90.13
2022-10-11T23:19:16.738Z,90.04
2022-10-11T23:22:21.273Z,90.08
2022-10-11T23:25:24.215Z,89.91
2022-10-11T23:28:29.595Z,90.31
2022-10-11T23:31:32.151Z,90.34
2022-10-11T23:34:35.220Z,90.51
2022-10-11T23:37:39.493Z,90.63
2022-10-11T23:40:44.264Z,90.32
2022-10-11T23:43:46.883Z,90.40
2022-10-11T23:46:49.917Z,90.40
2022-10-11T23:49:53.895Z,90.69
2022-10-11T23:52:57.253Z,91.04
2022-10-11T23:56:00.481Z,90.92
2022-10-11T23:59:04.448Z,90.56
